Taxiarchis — SX9512 — position and weather

sailwx.info

Track history (hours):
 
Tides and Currents Weather Stations Pressure Air Temp Water Temp Dewpoint Dewpoint Depression Visibility Wind Speed Wind Dir Waves Ship Positions

Taxiarchis

Last reported at 2018-May-17 00:29 UTC. Time now 2018-May-20 17:51 UTC.
Position N 37°34' E 023°43'.

Length 72 m; draft 4.6 m.

Type: Tanker. MMSI: 239858000.

Date/timePositionNaut miles runAvg speedWind from/ knotsBaromVisibWave heightAir tempDewpointWater temp
2018-May-17 00:29N 37°34' E 023°43'4 8.9
2018-May-17 00:00N 37°38' E 023°42'4 9.0
2018-May-16 23:30N 37°43' E 023°40'5 9.1
2018-May-16 23:00N 37°47' E 023°38'4 8.2
2018-May-16 22:30N 37°49' E 023°34'5 9.1
2018-May-16 22:00N 37°50' E 023°29'4 9.0
2018-May-16 21:30N 37°52' E 023°24'3 5.9
2018-May-16 21:00N 37°55' E 023°22'4 8.3
2018-May-16 20:30N 37°58' E 023°26'3 6.6
2018-May-16 20:00N 38°01' E 023°28'2 4.2
2018-May-16 19:30N 38°02' E 023°31'0 0.0
2018-May-16 19:00N 38°02' E 023°31'0 0.0
2018-May-16 18:30N 38°02' E 023°31'0 0.0
2018-May-16 18:00N 38°02' E 023°31'0 0.0
2018-May-16 17:30N 38°02' E 023°31'0 0.0
2018-May-16 17:00N 38°02' E 023°31'0 0.0
2018-May-16 16:30N 38°02' E 023°31'0 0.0
2018-May-16 16:00N 38°02' E 023°31'0 0.0
2018-May-16 15:30N 38°02' E 023°31'0 0.0
2018-May-16 15:00N 38°02' E 023°31'0 0.0
2018-May-16 14:30N 38°02' E 023°31'0 0.0
2018-May-16 14:00N 38°02' E 023°31'0 0.0
2018-May-16 13:29N 38°02' E 023°31'0 0.0
2018-May-16 13:00N 38°02' E 023°31'0 0.0
2018-May-16 12:30N 38°02' E 023°31'0 0.0
2018-May-16 12:00N 38°02' E 023°31'0 0.0
2018-May-16 11:30N 38°02' E 023°31'0 0.0
2018-May-16 11:00N 38°02' E 023°31'0 0.0
2018-May-16 10:30N 38°02' E 023°31'0 0.0
2018-May-16 10:00N 38°02' E 023°31'0 0.0
2018-May-16 09:30N 38°02' E 023°31'0 0.0
2018-May-16 09:00N 38°02' E 023°31'0 0.0
2018-May-16 08:30N 38°02' E 023°31'0 0.0
2018-May-16 08:00N 38°02' E 023°31'0 0.8
2018-May-16 07:30N 38°02' E 023°31'0 0.9
2018-May-16 07:00N 38°02' E 023°32'0 0.0
2018-May-16 06:30N 38°02' E 023°32'0 0.0
2018-May-16 06:00N 38°02' E 023°32'0 0.0
2018-May-16 05:30N 38°02' E 023°32'0 0.1
2018-May-16 05:00N 38°02' E 023°32'0 0.0
2018-May-16 04:30N 38°02' E 023°32'0 0.1
2018-May-16 04:00N 38°02' E 023°32'4 7.1
2018-May-16 03:30N 37°59' E 023°33'4 7.2
2018-May-16 03:00N 37°56' E 023°35'0 0.1
2018-May-16 02:31N 37°56' E 023°35'0 0.4
2018-May-16 02:00N 37°56' E 023°35'3 5.1
2018-May-16 01:30N 37°54' E 023°37'5 9.7
2018-May-16 01:00N 37°49' E 023°40'5 9.7
2018-May-16 00:30N 37°45' E 023°43'5 9.9
2018-May-16 00:00N 37°41' E 023°46'5 9.8
2018-May-15 23:30N 37°36' E 023°47'510.0
2018-May-15 23:00N 37°31' E 023°48'43 9.7
2018-May-15 18:34N 36°49' E 023°58'1 9.5
2018-May-15 18:30N 36°48' E 023°58'5 9.5
2018-May-15 18:00N 36°43' E 023°60'5 9.4
2018-May-15 17:30N 36°39' E 024°01'7 9.7
2018-May-15 16:46N 36°32' E 024°02'310.0
2018-May-15 16:30N 36°29' E 024°02'510.1
2018-May-15 16:00N 36°24' E 024°03'5 9.8
2018-May-15 15:30N 36°19' E 024°04'5 9.6
2018-May-15 14:59N 36°14' E 024°05'5 9.7
2018-May-15 14:30N 36°10' E 024°06'39 1.7
2018-May-14 15:14N 35°31' E 024°14'1 6.3
2018-May-14 15:01N 35°33' E 024°15'122 8.8
2018-May-14 01:12N 37°32' E 023°44'2 8.9
2018-May-14 01:00N 37°34' E 023°44'5 8.8
2018-May-14 00:29N 37°38' E 023°43'4 8.6
2018-May-13 23:59N 37°42' E 023°41'4 8.9
2018-May-13 23:31N 37°46' E 023°38'4 8.3
2018-May-13 23:00N 37°50' E 023°35'4 8.7
2018-May-13 22:31N 37°50' E 023°30'4 8.6
2018-May-13 22:01N 37°52' E 023°25'4 7.2
2018-May-13 21:30N 37°55' E 023°22'4 8.1
2018-May-13 21:00N 37°58' E 023°25'3 6.1
2018-May-13 20:30N 38°00' E 023°27'3 6.0
2018-May-13 20:00N 38°02' E 023°30'0 0.1
2018-May-13 19:30N 38°02' E 023°31'0 0.0
2018-May-13 19:00N 38°02' E 023°31'0 0.0
2018-May-13 18:30N 38°02' E 023°31'0 0.0
2018-May-13 18:00N 38°02' E 023°31'0 0.0
2018-May-13 17:30N 38°02' E 023°31'0 0.0
2018-May-13 16:59N 38°02' E 023°31'0 0.0
2018-May-13 16:30N 38°02' E 023°31'0 0.0
2018-May-13 16:00N 38°02' E 023°31'0 0.0
2018-May-13 15:30N 38°02' E 023°31'0 0.0
2018-May-13 15:00N 38°02' E 023°31'0 0.0
2018-May-13 14:30N 38°02' E 023°31'0 0.0
2018-May-13 14:00N 38°02' E 023°31'0 0.0
2018-May-13 13:30N 38°02' E 023°31'0 0.0
2018-May-13 13:00N 38°02' E 023°31'0 0.0
2018-May-13 12:30N 38°02' E 023°31'0 0.0
2018-May-13 12:00N 38°02' E 023°31'0 0.0
2018-May-13 11:30N 38°02' E 023°31'0 0.0
2018-May-13 11:00N 38°02' E 023°31'0 0.0
2018-May-13 10:30N 38°02' E 023°31'0 0.0
2018-May-13 10:00N 38°02' E 023°31'0 0.0
2018-May-13 09:30N 38°02' E 023°31'0 0.0
2018-May-13 09:00N 38°02' E 023°31'0 0.0
2018-May-13 08:30N 38°02' E 023°31'0 0.0
2018-May-13 08:00N 38°02' E 023°31'0 0.0
2018-May-13 07:30N 38°02' E 023°31'0 0.0
2018-May-13 07:00N 38°02' E 023°31'0 0.0
2018-May-13 06:30N 38°02' E 023°31'0 0.0
2018-May-13 06:00N 38°02' E 023°31'0 0.0
2018-May-13 05:30N 38°02' E 023°31'0 0.7
2018-May-13 05:00N 38°02' E 023°30'0 1.0
2018-May-13 04:30N 38°02' E 023°31'0 0.1
2018-May-13 04:00N 38°02' E 023°31'0 0.0
2018-May-13 03:30N 38°02' E 023°31'0 0.0
2018-May-13 03:00N 38°02' E 023°31'0 0.0
2018-May-13 02:30N 38°02' E 023°31'0 0.0
2018-May-13 02:00N 38°02' E 023°31'0 0.0
2018-May-13 01:30N 38°02' E 023°31'2 3.8
2018-May-13 01:01N 38°01' E 023°29'4 7.0
2018-May-13 00:30N 37°58' E 023°26'5 9.0
2018-May-13 00:00N 37°54' E 023°23'4 8.9
2018-May-12 23:30N 37°51' E 023°27'5 9.9
2018-May-12 23:00N 37°50' E 023°33'5 9.9
2018-May-12 22:30N 37°48' E 023°39'5 9.1
2018-May-12 22:00N 37°45' E 023°43'5 9.7
2018-May-12 21:30N 37°41' E 023°45'5 9.7
2018-May-12 20:59N 37°36' E 023°44'710.1
2018-May-12 20:20N 37°29' E 023°42'  
2018-May-10 05:14N 37°20' E 023°39'13 9.1
2018-May-10 03:46N 37°33' E 023°41'2 9.2
2018-May-10 03:30N 37°35' E 023°41'4 9.0
2018-May-10 03:00N 37°40' E 023°42'4 8.9
2018-May-10 02:30N 37°44' E 023°40'5 9.0
2018-May-10 02:00N 37°48' E 023°37'4 7.9
2018-May-10 01:30N 37°50' E 023°33'4 8.7
2018-May-10 01:00N 37°51' E 023°27'4 8.8
2018-May-10 00:30N 37°53' E 023°23'3 6.8
2018-May-10 00:00N 37°57' E 023°23'3 6.3
2018-May-09 23:30N 37°59' E 023°25'4 8.7
2018-May-09 23:01N 38°01' E 023°30'1 1.9
2018-May-09 22:30N 38°02' E 023°31'0 0.0
2018-May-09 22:01N 38°02' E 023°31'0 0.0
2018-May-09 21:30N 38°02' E 023°31'0 0.0
2018-May-09 21:00N 38°02' E 023°31'0 0.0
2018-May-09 20:30N 38°02' E 023°31'0 0.0
2018-May-09 20:00N 38°02' E 023°31'0 0.0
2018-May-09 19:31N 38°02' E 023°31'0 0.0
2018-May-09 19:01N 38°02' E 023°31'0 0.0
2018-May-09 18:30N 38°02' E 023°31'0 0.0
2018-May-09 18:00N 38°02' E 023°31'0 0.0
2018-May-09 17:30N 38°02' E 023°31'0 0.0
2018-May-09 17:00N 38°02' E 023°31'0 0.0
2018-May-09 16:30N 38°02' E 023°31'0 0.0
2018-May-09 16:00N 38°02' E 023°31'0 0.0
2018-May-09 15:27N 38°02' E 023°31'0 0.0
2018-May-09 14:55N 38°02' E 023°31'0 0.0
2018-May-09 14:30N 38°02' E 023°31'0 0.0
2018-May-09 14:00N 38°02' E 023°31'0 0.0
2018-May-09 13:30N 38°02' E 023°31'0 0.1
2018-May-09 13:00N 38°02' E 023°31'2 4.4
2018-May-09 12:30N 38°01' E 023°33'2 4.6
2018-May-09 12:00N 38°02' E 023°36'0 0.0
2018-May-09 11:30N 38°02' E 023°36'0 0.0
2018-May-09 11:00N 38°02' E 023°36'0 0.0
2018-May-09 10:30N 38°02' E 023°36'0 0.0
2018-May-09 10:00N 38°02' E 023°36'0 0.0
2018-May-09 09:30N 38°02' E 023°36'0 0.0
2018-May-09 09:00N 38°02' E 023°36'0 0.0
2018-May-09 08:30N 38°02' E 023°36'0 0.0
2018-May-09 08:00N 38°02' E 023°36'0 0.0
2018-May-09 07:30N 38°02' E 023°36'0 0.0
2018-May-09 07:01N 38°02' E 023°36'0 0.0
2018-May-09 06:30N 38°02' E 023°36'0 0.0
2018-May-09 06:00N 38°02' E 023°36'0 0.0
2018-May-09 05:30N 38°02' E 023°36'0 0.0
2018-May-09 05:00N 38°02' E 023°36'0 0.0
2018-May-09 04:30N 38°02' E 023°36'0 0.0
2018-May-09 04:00N 38°02' E 023°36'0 0.0
2018-May-09 03:30N 38°02' E 023°36'0 0.0
2018-May-09 03:01N 38°02' E 023°36'0 0.0
2018-May-09 02:30N 38°02' E 023°36'0 0.0
2018-May-09 02:00N 38°02' E 023°36'0 0.0
2018-May-09 01:31N 38°02' E 023°36'0 0.0
2018-May-09 01:00N 38°02' E 023°36'0 0.0
2018-May-09 00:30N 38°02' E 023°36'0 0.0
2018-May-09 00:00N 38°02' E 023°36'0 0.0
2018-May-08 23:30N 38°02' E 023°36'0 0.0
2018-May-08 23:00N 38°02' E 023°36'0 0.0
2018-May-08 22:30N 38°02' E 023°36'2 4.7
2018-May-08 22:00N 38°01' E 023°33'1 2.6
2018-May-08 21:30N 38°01' E 023°32'0 0.0
2018-May-08 21:00N 38°01' E 023°32'0 0.0
2018-May-08 20:30N 38°01' E 023°32'0 0.0
2018-May-08 20:01N 38°01' E 023°32'0 0.0
2018-May-08 19:30N 38°01' E 023°32'0 0.0
2018-May-08 19:00N 38°01' E 023°32'0 0.0
2018-May-08 18:30N 38°01' E 023°32'0 0.0
2018-May-08 18:00N 38°01' E 023°32'0 0.0
2018-May-08 17:30N 38°01' E 023°32'0 0.0
2018-May-08 17:00N 38°01' E 023°32'0 0.0
2018-May-08 16:31N 38°01' E 023°32'0 0.0
2018-May-08 16:00N 38°01' E 023°32'0 0.1
2018-May-08 15:30N 38°01' E 023°32'0 0.0
2018-May-08 15:00N 38°02' E 023°32'0 0.1
2018-May-08 14:30N 38°02' E 023°32'0 0.1
2018-May-08 14:00N 38°01' E 023°32'0 0.1
2018-May-08 13:30N 38°01' E 023°32'0 0.0
2018-May-08 13:00N 38°01' E 023°32'0 0.0
2018-May-08 12:30N 38°01' E 023°32'0 0.0
2018-May-08 12:00N 38°01' E 023°32'0 0.0
2018-May-08 11:30N 38°01' E 023°32'0 0.1
2018-May-08 11:00N 38°01' E 023°32'0 0.1
2018-May-08 10:30N 38°01' E 023°32'0 0.0
2018-May-08 10:01N 38°01' E 023°32'0 0.0
2018-May-08 09:30N 38°01' E 023°32'0 0.0
2018-May-08 09:00N 38°02' E 023°32'0 0.0
2018-May-08 08:30N 38°02' E 023°32'0 0.0
2018-May-08 08:00N 38°02' E 023°32'0 0.0
2018-May-08 07:30N 38°02' E 023°32'0 0.0
2018-May-08 07:00N 38°02' E 023°32'0 0.0
2018-May-08 06:30N 38°02' E 023°32'0 0.1
2018-May-08 06:00N 38°01' E 023°32'0 0.1
2018-May-08 05:31N 38°01' E 023°32'0 0.0
2018-May-08 05:00N 38°01' E 023°32'0 0.0
2018-May-08 04:30N 38°01' E 023°32'0 0.0
2018-May-08 04:00N 38°01' E 023°32'0 0.0
2018-May-08 03:30N 38°01' E 023°32'0 0.1
2018-May-08 03:00N 38°02' E 023°32'0 0.1
2018-May-08 02:30N 38°01' E 023°32'0 0.0
2018-May-08 02:00N 38°01' E 023°32'0 0.0
2018-May-08 01:30N 38°01' E 023°32'0 0.1
2018-May-08 01:00N 38°01' E 023°32'0 0.0
2018-May-08 00:30N 38°01' E 023°32'0 0.0
2018-May-08 00:00N 38°01' E 023°32'0 0.0
2018-May-07 23:30N 38°01' E 023°32'0 0.0
2018-May-07 23:00N 38°01' E 023°32'0 0.0
2018-May-07 22:30N 38°01' E 023°32'0 0.0
2018-May-07 22:00N 38°01' E 023°32'0 0.0
2018-May-07 21:30N 38°01' E 023°32'0 0.0
2018-May-07 21:00N 38°01' E 023°32'0 0.0
2018-May-07 20:30N 38°01' E 023°32'0 0.0
2018-May-07 20:00N 38°01' E 023°32'0 0.0
2018-May-07 19:30N 38°01' E 023°32'0 0.0
2018-May-07 19:00N 38°01' E 023°32'0 0.0
2018-May-07 18:31N 38°01' E 023°32'0 0.1
2018-May-07 18:00N 38°02' E 023°32'0 0.0
2018-May-07 17:30N 38°02' E 023°32'0 0.0
2018-May-07 17:00N 38°02' E 023°32'0 0.0
2018-May-07 16:30N 38°02' E 023°32'0 0.0
2018-May-07 16:00N 38°02' E 023°32'0 0.1
2018-May-07 15:30N 38°01' E 023°32'0 0.1
2018-May-07 15:00N 38°01' E 023°32'0 0.0
2018-May-07 14:30N 38°01' E 023°32'0 0.1
2018-May-07 14:00N 38°01' E 023°32'0 0.0
2018-May-07 13:31N 38°01' E 023°32'0 0.0
2018-May-07 13:00N 38°01' E 023°32'0 0.1
2018-May-07 12:30N 38°02' E 023°32'0 0.0
2018-May-07 12:00N 38°02' E 023°32'0 0.0
2018-May-07 11:30N 38°02' E 023°32'0 0.0
2018-May-07 11:00N 38°02' E 023°32'0 0.0
2018-May-07 10:30N 38°02' E 023°32'0 0.1
2018-May-07 10:00N 38°01' E 023°32'0 0.0
2018-May-07 09:30N 38°01' E 023°32'0 0.0
2018-May-07 09:00N 38°01' E 023°32'0 0.0
2018-May-07 08:30N 38°01' E 023°32'0 0.0
2018-May-07 08:00N 38°01' E 023°32'0 0.1
2018-May-07 07:30N 38°01' E 023°32'0 0.1
2018-May-07 07:00N 38°02' E 023°32'0 0.1
2018-May-07 06:31N 38°01' E 023°32'0 0.1
2018-May-07 06:00N 38°01' E 023°32'0 0.1
2018-May-07 05:30N 38°01' E 023°32'0 0.0
2018-May-07 05:00N 38°01' E 023°32'0 0.0
2018-May-07 04:30N 38°01' E 023°32'0 0.1
2018-May-07 04:00N 38°01' E 023°32'0 0.0
2018-May-07 03:30N 38°01' E 023°32'0 0.0
2018-May-07 03:00N 38°01' E 023°32'0 0.0
2018-May-07 02:30N 38°01' E 023°32'0 0.0
2018-May-07 02:00N 38°01' E 023°32'0 0.0
2018-May-07 01:30N 38°01' E 023°32'0 0.0
2018-May-07 01:00N 38°01' E 023°32'0 0.0
2018-May-07 00:30N 38°01' E 023°32'  
Track history (hours):
 
Tides and Currents Weather Stations Pressure Air Temp Water Temp Dewpoint Dewpoint Depression Visibility Wind Speed Wind Dir Waves Ship Positions

Taxiarchis

Last reported at 2018-May-17 00:29 UTC. Time now 2018-May-20 17:51 UTC.
Position N 37°34' E 023°43'.

Length 72 m; draft 4.6 m.

Type: Tanker. MMSI: 239858000.

Date/timePositionNaut miles runAvg speedWind from/ knotsBaromVisibWave heightAir tempDewpointWater temp
2018-May-17 00:29N 37°34' E 023°43'4 8.9
2018-May-17 00:00N 37°38' E 023°42'4 9.0
2018-May-16 23:30N 37°43' E 023°40'5 9.1
2018-May-16 23:00N 37°47' E 023°38'4 8.2
2018-May-16 22:30N 37°49' E 023°34'5 9.1
2018-May-16 22:00N 37°50' E 023°29'4 9.0
2018-May-16 21:30N 37°52' E 023°24'3 5.9
2018-May-16 21:00N 37°55' E 023°22'4 8.3
2018-May-16 20:30N 37°58' E 023°26'3 6.6
2018-May-16 20:00N 38°01' E 023°28'2 4.2
2018-May-16 19:30N 38°02' E 023°31'0 0.0
2018-May-16 19:00N 38°02' E 023°31'0 0.0
2018-May-16 18:30N 38°02' E 023°31'0 0.0
2018-May-16 18:00N 38°02' E 023°31'0 0.0
2018-May-16 17:30N 38°02' E 023°31'0 0.0
2018-May-16 17:00N 38°02' E 023°31'0 0.0
2018-May-16 16:30N 38°02' E 023°31'0 0.0
2018-May-16 16:00N 38°02' E 023°31'0 0.0
2018-May-16 15:30N 38°02' E 023°31'0 0.0
2018-May-16 15:00N 38°02' E 023°31'0 0.0
2018-May-16 14:30N 38°02' E 023°31'0 0.0
2018-May-16 14:00N 38°02' E 023°31'0 0.0
2018-May-16 13:29N 38°02' E 023°31'0 0.0
2018-May-16 13:00N 38°02' E 023°31'0 0.0
2018-May-16 12:30N 38°02' E 023°31'0 0.0
2018-May-16 12:00N 38°02' E 023°31'0 0.0
2018-May-16 11:30N 38°02' E 023°31'0 0.0
2018-May-16 11:00N 38°02' E 023°31'0 0.0
2018-May-16 10:30N 38°02' E 023°31'0 0.0
2018-May-16 10:00N 38°02' E 023°31'0 0.0
2018-May-16 09:30N 38°02' E 023°31'0 0.0
2018-May-16 09:00N 38°02' E 023°31'0 0.0
2018-May-16 08:30N 38°02' E 023°31'0 0.0
2018-May-16 08:00N 38°02' E 023°31'0 0.8
2018-May-16 07:30N 38°02' E 023°31'0 0.9
2018-May-16 07:00N 38°02' E 023°32'0 0.0
2018-May-16 06:30N 38°02' E 023°32'0 0.0
2018-May-16 06:00N 38°02' E 023°32'0 0.0
2018-May-16 05:30N 38°02' E 023°32'0 0.1
2018-May-16 05:00N 38°02' E 023°32'0 0.0
2018-May-16 04:30N 38°02' E 023°32'0 0.1
2018-May-16 04:00N 38°02' E 023°32'4 7.1
2018-May-16 03:30N 37°59' E 023°33'4 7.2
2018-May-16 03:00N 37°56' E 023°35'0 0.1
2018-May-16 02:31N 37°56' E 023°35'0 0.4
2018-May-16 02:00N 37°56' E 023°35'3 5.1
2018-May-16 01:30N 37°54' E 023°37'5 9.7
2018-May-16 01:00N 37°49' E 023°40'5 9.7
2018-May-16 00:30N 37°45' E 023°43'5 9.9
2018-May-16 00:00N 37°41' E 023°46'5 9.8
2018-May-15 23:30N 37°36' E 023°47'510.0
2018-May-15 23:00N 37°31' E 023°48'43 9.7
2018-May-15 18:34N 36°49' E 023°58'1 9.5
2018-May-15 18:30N 36°48' E 023°58'5 9.5
2018-May-15 18:00N 36°43' E 023°60'5 9.4
2018-May-15 17:30N 36°39' E 024°01'7 9.7
2018-May-15 16:46N 36°32' E 024°02'310.0
2018-May-15 16:30N 36°29' E 024°02'510.1
2018-May-15 16:00N 36°24' E 024°03'5 9.8
2018-May-15 15:30N 36°19' E 024°04'5 9.6
2018-May-15 14:59N 36°14' E 024°05'5 9.7
2018-May-15 14:30N 36°10' E 024°06'39 1.7
2018-May-14 15:14N 35°31' E 024°14'1 6.3
2018-May-14 15:01N 35°33' E 024°15'122 8.8
2018-May-14 01:12N 37°32' E 023°44'2 8.9
2018-May-14 01:00N 37°34' E 023°44'5 8.8
2018-May-14 00:29N 37°38' E 023°43'4 8.6
2018-May-13 23:59N 37°42' E 023°41'4 8.9
2018-May-13 23:31N 37°46' E 023°38'4 8.3
2018-May-13 23:00N 37°50' E 023°35'4 8.7
2018-May-13 22:31N 37°50' E 023°30'4 8.6
2018-May-13 22:01N 37°52' E 023°25'4 7.2
2018-May-13 21:30N 37°55' E 023°22'4 8.1
2018-May-13 21:00N 37°58' E 023°25'3 6.1
2018-May-13 20:30N 38°00' E 023°27'3 6.0
2018-May-13 20:00N 38°02' E 023°30'0 0.1
2018-May-13 19:30N 38°02' E 023°31'0 0.0
2018-May-13 19:00N 38°02' E 023°31'0 0.0
2018-May-13 18:30N 38°02' E 023°31'0 0.0
2018-May-13 18:00N 38°02' E 023°31'0 0.0
2018-May-13 17:30N 38°02' E 023°31'0 0.0
2018-May-13 16:59N 38°02' E 023°31'0 0.0
2018-May-13 16:30N 38°02' E 023°31'0 0.0
2018-May-13 16:00N 38°02' E 023°31'0 0.0
2018-May-13 15:30N 38°02' E 023°31'0 0.0
2018-May-13 15:00N 38°02' E 023°31'0 0.0
2018-May-13 14:30N 38°02' E 023°31'0 0.0
2018-May-13 14:00N 38°02' E 023°31'0 0.0
2018-May-13 13:30N 38°02' E 023°31'0 0.0
2018-May-13 13:00N 38°02' E 023°31'0 0.0
2018-May-13 12:30N 38°02' E 023°31'0 0.0
2018-May-13 12:00N 38°02' E 023°31'0 0.0
2018-May-13 11:30N 38°02' E 023°31'0 0.0
2018-May-13 11:00N 38°02' E 023°31'0 0.0
2018-May-13 10:30N 38°02' E 023°31'0 0.0
2018-May-13 10:00N 38°02' E 023°31'0 0.0
2018-May-13 09:30N 38°02' E 023°31'0 0.0
2018-May-13 09:00N 38°02' E 023°31'0 0.0
2018-May-13 08:30N 38°02' E 023°31'0 0.0
2018-May-13 08:00N 38°02' E 023°31'0 0.0
2018-May-13 07:30N 38°02' E 023°31'0 0.0
2018-May-13 07:00N 38°02' E 023°31'0 0.0
2018-May-13 06:30N 38°02' E 023°31'0 0.0
2018-May-13 06:00N 38°02' E 023°31'0 0.0
2018-May-13 05:30N 38°02' E 023°31'0 0.7
2018-May-13 05:00N 38°02' E 023°30'0 1.0
2018-May-13 04:30N 38°02' E 023°31'0 0.1
2018-May-13 04:00N 38°02' E 023°31'0 0.0
2018-May-13 03:30N 38°02' E 023°31'0 0.0
2018-May-13 03:00N 38°02' E 023°31'0 0.0
2018-May-13 02:30N 38°02' E 023°31'0 0.0
2018-May-13 02:00N 38°02' E 023°31'0 0.0
2018-May-13 01:30N 38°02' E 023°31'2 3.8
2018-May-13 01:01N 38°01' E 023°29'4 7.0
2018-May-13 00:30N 37°58' E 023°26'5 9.0
2018-May-13 00:00N 37°54' E 023°23'4 8.9
2018-May-12 23:30N 37°51' E 023°27'5 9.9
2018-May-12 23:00N 37°50' E 023°33'5 9.9
2018-May-12 22:30N 37°48' E 023°39'5 9.1
2018-May-12 22:00N 37°45' E 023°43'5 9.7
2018-May-12 21:30N 37°41' E 023°45'5 9.7
2018-May-12 20:59N 37°36' E 023°44'710.1
2018-May-12 20:20N 37°29' E 023°42'  
2018-May-10 05:14N 37°20' E 023°39'13 9.1
2018-May-10 03:46N 37°33' E 023°41'2 9.2
2018-May-10 03:30N 37°35' E 023°41'4 9.0
2018-May-10 03:00N 37°40' E 023°42'4 8.9
2018-May-10 02:30N 37°44' E 023°40'5 9.0
2018-May-10 02:00N 37°48' E 023°37'4 7.9
2018-May-10 01:30N 37°50' E 023°33'4 8.7
2018-May-10 01:00N 37°51' E 023°27'4 8.8
2018-May-10 00:30N 37°53' E 023°23'3 6.8
2018-May-10 00:00N 37°57' E 023°23'3 6.3
2018-May-09 23:30N 37°59' E 023°25'4 8.7
2018-May-09 23:01N 38°01' E 023°30'1 1.9
2018-May-09 22:30N 38°02' E 023°31'0 0.0
2018-May-09 22:01N 38°02' E 023°31'0 0.0
2018-May-09 21:30N 38°02' E 023°31'0 0.0
2018-May-09 21:00N 38°02' E 023°31'0 0.0
2018-May-09 20:30N 38°02' E 023°31'0 0.0
2018-May-09 20:00N 38°02' E 023°31'0 0.0
2018-May-09 19:31N 38°02' E 023°31'0 0.0
2018-May-09 19:01N 38°02' E 023°31'0 0.0
2018-May-09 18:30N 38°02' E 023°31'0 0.0
2018-May-09 18:00N 38°02' E 023°31'0 0.0
2018-May-09 17:30N 38°02' E 023°31'0 0.0
2018-May-09 17:00N 38°02' E 023°31'0 0.0
2018-May-09 16:30N 38°02' E 023°31'0 0.0
2018-May-09 16:00N 38°02' E 023°31'0 0.0
2018-May-09 15:27N 38°02' E 023°31'0 0.0
2018-May-09 14:55N 38°02' E 023°31'0 0.0
2018-May-09 14:30N 38°02' E 023°31'0 0.0
2018-May-09 14:00N 38°02' E 023°31'0 0.0
2018-May-09 13:30N 38°02' E 023°31'0 0.1
2018-May-09 13:00N 38°02' E 023°31'2 4.4
2018-May-09 12:30N 38°01' E 023°33'2 4.6
2018-May-09 12:00N 38°02' E 023°36'0 0.0
2018-May-09 11:30N 38°02' E 023°36'0 0.0
2018-May-09 11:00N 38°02' E 023°36'0 0.0
2018-May-09 10:30N 38°02' E 023°36'0 0.0
2018-May-09 10:00N 38°02' E 023°36'0 0.0
2018-May-09 09:30N 38°02' E 023°36'0 0.0
2018-May-09 09:00N 38°02' E 023°36'0 0.0
2018-May-09 08:30N 38°02' E 023°36'0 0.0
2018-May-09 08:00N 38°02' E 023°36'0 0.0
2018-May-09 07:30N 38°02' E 023°36'0 0.0
2018-May-09 07:01N 38°02' E 023°36'0 0.0
2018-May-09 06:30N 38°02' E 023°36'0 0.0
2018-May-09 06:00N 38°02' E 023°36'0 0.0
2018-May-09 05:30N 38°02' E 023°36'0 0.0
2018-May-09 05:00N 38°02' E 023°36'0 0.0
2018-May-09 04:30N 38°02' E 023°36'0 0.0
2018-May-09 04:00N 38°02' E 023°36'0 0.0
2018-May-09 03:30N 38°02' E 023°36'0 0.0
2018-May-09 03:01N 38°02' E 023°36'0 0.0
2018-May-09 02:30N 38°02' E 023°36'0 0.0
2018-May-09 02:00N 38°02' E 023°36'0 0.0
2018-May-09 01:31N 38°02' E 023°36'0 0.0
2018-May-09 01:00N 38°02' E 023°36'0 0.0
2018-May-09 00:30N 38°02' E 023°36'0 0.0
2018-May-09 00:00N 38°02' E 023°36'0 0.0
2018-May-08 23:30N 38°02' E 023°36'0 0.0
2018-May-08 23:00N 38°02' E 023°36'0 0.0
2018-May-08 22:30N 38°02' E 023°36'2 4.7
2018-May-08 22:00N 38°01' E 023°33'1 2.6
2018-May-08 21:30N 38°01' E 023°32'0 0.0
2018-May-08 21:00N 38°01' E 023°32'0 0.0
2018-May-08 20:30N 38°01' E 023°32'0 0.0
2018-May-08 20:01N 38°01' E 023°32'0 0.0
2018-May-08 19:30N 38°01' E 023°32'0 0.0
2018-May-08 19:00N 38°01' E 023°32'0 0.0
2018-May-08 18:30N 38°01' E 023°32'0 0.0
2018-May-08 18:00N 38°01' E 023°32'0 0.0
2018-May-08 17:30N 38°01' E 023°32'0 0.0
2018-May-08 17:00N 38°01' E 023°32'0 0.0
2018-May-08 16:31N 38°01' E 023°32'0 0.0
2018-May-08 16:00N 38°01' E 023°32'0 0.1
2018-May-08 15:30N 38°01' E 023°32'0 0.0
2018-May-08 15:00N 38°02' E 023°32'0 0.1
2018-May-08 14:30N 38°02' E 023°32'0 0.1
2018-May-08 14:00N 38°01' E 023°32'0 0.1
2018-May-08 13:30N 38°01' E 023°32'0 0.0
2018-May-08 13:00N 38°01' E 023°32'0 0.0
2018-May-08 12:30N 38°01' E 023°32'0 0.0
2018-May-08 12:00N 38°01' E 023°32'0 0.0
2018-May-08 11:30N 38°01' E 023°32'0 0.1
2018-May-08 11:00N 38°01' E 023°32'0 0.1
2018-May-08 10:30N 38°01' E 023°32'0 0.0
2018-May-08 10:01N 38°01' E 023°32'0 0.0
2018-May-08 09:30N 38°01' E 023°32'0 0.0
2018-May-08 09:00N 38°02' E 023°32'0 0.0
2018-May-08 08:30N 38°02' E 023°32'0 0.0
2018-May-08 08:00N 38°02' E 023°32'0 0.0
2018-May-08 07:30N 38°02' E 023°32'0 0.0
2018-May-08 07:00N 38°02' E 023°32'0 0.0
2018-May-08 06:30N 38°02' E 023°32'0 0.1
2018-May-08 06:00N 38°01' E 023°32'0 0.1
2018-May-08 05:31N 38°01' E 023°32'0 0.0
2018-May-08 05:00N 38°01' E 023°32'0 0.0
2018-May-08 04:30N 38°01' E 023°32'0 0.0
2018-May-08 04:00N 38°01' E 023°32'0 0.0
2018-May-08 03:30N 38°01' E 023°32'0 0.1
2018-May-08 03:00N 38°02' E 023°32'0 0.1
2018-May-08 02:30N 38°01' E 023°32'0 0.0
2018-May-08 02:00N 38°01' E 023°32'0 0.0
2018-May-08 01:30N 38°01' E 023°32'0 0.1
2018-May-08 01:00N 38°01' E 023°32'0 0.0
2018-May-08 00:30N 38°01' E 023°32'0 0.0
2018-May-08 00:00N 38°01' E 023°32'0 0.0
2018-May-07 23:30N 38°01' E 023°32'0 0.0
2018-May-07 23:00N 38°01' E 023°32'0 0.0
2018-May-07 22:30N 38°01' E 023°32'0 0.0
2018-May-07 22:00N 38°01' E 023°32'0 0.0
2018-May-07 21:30N 38°01' E 023°32'0 0.0
2018-May-07 21:00N 38°01' E 023°32'0 0.0
2018-May-07 20:30N 38°01' E 023°32'0 0.0
2018-May-07 20:00N 38°01' E 023°32'0 0.0
2018-May-07 19:30N 38°01' E 023°32'0 0.0
2018-May-07 19:00N 38°01' E 023°32'0 0.0
2018-May-07 18:31N 38°01' E 023°32'0 0.1
2018-May-07 18:00N 38°02' E 023°32'0 0.0
2018-May-07 17:30N 38°02' E 023°32'0 0.0
2018-May-07 17:00N 38°02' E 023°32'0 0.0
2018-May-07 16:30N 38°02' E 023°32'0 0.0
2018-May-07 16:00N 38°02' E 023°32'0 0.1
2018-May-07 15:30N 38°01' E 023°32'0 0.1
2018-May-07 15:00N 38°01' E 023°32'0 0.0
2018-May-07 14:30N 38°01' E 023°32'0 0.1
2018-May-07 14:00N 38°01' E 023°32'0 0.0
2018-May-07 13:31N 38°01' E 023°32'0 0.0
2018-May-07 13:00N 38°01' E 023°32'0 0.1
2018-May-07 12:30N 38°02' E 023°32'0 0.0
2018-May-07 12:00N 38°02' E 023°32'0 0.0
2018-May-07 11:30N 38°02' E 023°32'0 0.0
2018-May-07 11:00N 38°02' E 023°32'0 0.0
2018-May-07 10:30N 38°02' E 023°32'0 0.1
2018-May-07 10:00N 38°01' E 023°32'0 0.0
2018-May-07 09:30N 38°01' E 023°32'0 0.0
2018-May-07 09:00N 38°01' E 023°32'0 0.0
2018-May-07 08:30N 38°01' E 023°32'0 0.0
2018-May-07 08:00N 38°01' E 023°32'0 0.1
2018-May-07 07:30N 38°01' E 023°32'0 0.1
2018-May-07 07:00N 38°02' E 023°32'0 0.1
2018-May-07 06:31N 38°01' E 023°32'0 0.1
2018-May-07 06:00N 38°01' E 023°32'0 0.1
2018-May-07 05:30N 38°01' E 023°32'0 0.0
2018-May-07 05:00N 38°01' E 023°32'0 0.0
2018-May-07 04:30N 38°01' E 023°32'0 0.1
2018-May-07 04:00N 38°01' E 023°32'0 0.0
2018-May-07 03:30N 38°01' E 023°32'0 0.0
2018-May-07 03:00N 38°01' E 023°32'0 0.0
2018-May-07 02:30N 38°01' E 023°32'0 0.0
2018-May-07 02:00N 38°01' E 023°32'0 0.0
2018-May-07 01:30N 38°01' E 023°32'0 0.0
2018-May-07 01:00N 38°01' E 023°32'0 0.0
2018-May-07 00:30N 38°01' E 023°32'  

Dump ship's entire track history